createdAt,value
2023-02-06T00:00:57.736Z,4.60
2023-02-06T00:03:43.610Z,4.70
2023-02-06T00:06:29.430Z,4.80
2023-02-06T00:09:15.295Z,5.10
2023-02-06T00:12:01.115Z,4.50
2023-02-06T00:14:46.672Z,4.60
2023-02-06T00:17:36.611Z,4.90
2023-02-06T00:20:22.515Z,5.00
2023-02-06T00:23:08.179Z,4.90
2023-02-06T00:25:54.500Z,5.20
2023-02-06T00:28:40.901Z,4.40
2023-02-06T00:31:26.669Z,4.30
2023-02-06T00:34:13.702Z,4.80
2023-02-06T00:36:59.393Z,4.50
2023-02-06T00:39:45.164Z,3.80
2023-02-06T00:42:31.327Z,3.80
2023-02-06T00:45:17.202Z,4.00
2023-02-06T00:48:03.215Z,4.20
2023-02-06T00:50:50.249Z,4.30
2023-02-06T00:53:36.235Z,4.10
2023-02-06T00:56:23.116Z,3.80
2023-02-06T00:59:09.695Z,3.70
2023-02-06T01:01:58.992Z,3.70
2023-02-06T01:04:45.334Z,3.90
2023-02-06T01:07:30.868Z,4.00
2023-02-06T01:10:18.435Z,3.70
2023-02-06T01:13:04.189Z,3.60
2023-02-06T01:15:51.185Z,4.20
2023-02-06T01:18:37.868Z,3.80
2023-02-06T01:21:25.202Z,4.20
2023-02-06T01:24:10.681Z,4.20
2023-02-06T01:26:56.564Z,4.10
2023-02-06T01:29:43.288Z,4.10
2023-02-06T01:32:29.591Z,4.20
2023-02-06T01:35:15.265Z,3.80
2023-02-06T01:38:01.192Z,2.90
2023-02-06T01:40:47.022Z,2.60
2023-02-06T01:43:38.965Z,2.70
2023-02-06T01:46:25.598Z,2.80
2023-02-06T01:49:28.223Z,2.90
2023-02-06T01:52:30.424Z,2.90
2023-02-06T01:55:16.356Z,2.60
2023-02-06T01:58:02.948Z,2.60
2023-02-06T02:00:49.684Z,3.00
2023-02-06T02:03:39.491Z,3.70
2023-02-06T02:06:27.414Z,4.00
2023-02-06T02:09:14.940Z,4.20
2023-02-06T02:12:01.063Z,4.30
2023-02-06T02:14:48.194Z,5.00
2023-02-06T02:17:46.068Z,4.30
2023-02-06T02:20:46.822Z,4.10
2023-02-06T02:23:38.753Z,4.00
2023-02-06T02:26:55.101Z,3.90
2023-02-06T02:29:57.749Z,3.90
2023-02-06T02:33:02.489Z,3.90
2023-02-06T02:36:05.210Z,3.90
2023-02-06T02:39:09.571Z,3.90
2023-02-06T02:42:17.007Z,3.90
2023-02-06T02:45:18.262Z,4.00
2023-02-06T02:48:28.398Z,4.00
2023-02-06T02:51:14.337Z,4.10
2023-02-06T02:54:00.439Z,4.20
2023-02-06T02:56:47.768Z,4.20
2023-02-06T02:59:39.719Z,4.20
2023-02-06T03:02:30.594Z,4.20
2023-02-06T03:05:20.350Z,4.20
2023-02-06T03:08:34.952Z,4.10
2023-02-06T03:11:21.215Z,4.20
2023-02-06T03:14:28.218Z,4.20
2023-02-06T03:17:19.495Z,4.10
2023-02-06T03:20:09.078Z,4.60
2023-02-06T03:22:57.370Z,4.80
2023-02-06T03:25:45.484Z,4.00
2023-02-06T03:28:37.561Z,4.00
2023-02-06T03:31:36.410Z,3.80
2023-02-06T03:35:03.934Z,3.90
2023-02-06T03:37:50.269Z,3.80
2023-02-06T03:40:39.583Z,3.80
2023-02-06T03:43:27.443Z,3.70
2023-02-06T03:46:15.571Z,3.60
2023-02-06T03:49:07.483Z,3.50
2023-02-06T03:52:17.035Z,4.10
2023-02-06T03:55:12.765Z,3.30
2023-02-06T03:58:06.440Z,3.20
2023-02-06T04:00:52.950Z,3.20
2023-02-06T04:03:38.771Z,3.40
2023-02-06T04:06:24.812Z,3.50
2023-02-06T04:09:10.698Z,3.60
2023-02-06T04:11:56.797Z,3.40
2023-02-06T04:14:44.053Z,3.40
2023-02-06T04:17:46.507Z,3.50
2023-02-06T04:20:40.944Z,3.90
2023-02-06T04:23:27.038Z,3.60
2023-02-06T04:26:13.149Z,3.40
2023-02-06T04:28:58.837Z,3.70
2023-02-06T04:31:44.738Z,3.90
2023-02-06T04:34:34.434Z,4.10
2023-02-06T04:37:20.556Z,4.20
2023-02-06T04:40:06.652Z,4.20
2023-02-06T04:42:52.610Z,4.30
2023-02-06T04:45:38.841Z,4.40
2023-02-06T04:48:25.900Z,4.50
2023-02-06T04:51:11.774Z,4.50
2023-02-06T04:53:58.009Z,4.40
2023-02-06T04:56:45.172Z,4.10
2023-02-06T04:59:31.068Z,3.80
2023-02-06T05:02:17.031Z,3.10
2023-02-06T05:05:03.819Z,2.60
2023-02-06T05:07:49.828Z,2.70
2023-02-06T05:10:35.314Z,2.80
2023-02-06T05:13:20.802Z,3.20
2023-02-06T05:16:12.351Z,3.70
2023-02-06T05:18:58.046Z,3.90
2023-02-06T05:21:43.631Z,3.80
2023-02-06T05:24:29.460Z,3.70
2023-02-06T05:27:15.099Z,3.60
2023-02-06T05:30:00.800Z,3.50
2023-02-06T05:32:46.387Z,3.80
2023-02-06T05:35:31.902Z,3.20
2023-02-06T05:38:18.562Z,3.30
2023-02-06T05:41:04.607Z,3.30
2023-02-06T05:43:50.544Z,3.20
2023-02-06T05:46:36.924Z,3.10
2023-02-06T05:49:22.766Z,3.10
2023-02-06T05:52:08.622Z,3.30
2023-02-06T05:54:54.614Z,3.40
2023-02-06T05:57:39.968Z,3.30
2023-02-06T06:00:25.832Z,4.10
2023-02-06T06:03:11.616Z,3.30
2023-02-06T06:05:58.964Z,3.60
2023-02-06T06:08:44.806Z,3.20
2023-02-06T06:11:31.923Z,3.00
2023-02-06T06:14:18.170Z,2.60
2023-02-06T06:17:03.953Z,3.60
2023-02-06T06:19:49.953Z,2.60
2023-02-06T06:22:36.229Z,2.50
2023-02-06T06:25:21.750Z,3.40
2023-02-06T06:28:07.763Z,2.70
2023-02-06T06:31:01.977Z,2.50
2023-02-06T06:33:47.785Z,2.80
2023-02-06T06:36:33.871Z,3.00
2023-02-06T06:39:19.611Z,3.40
2023-02-06T06:42:05.893Z,3.30
2023-02-06T06:44:51.897Z,3.40
2023-02-06T06:47:38.012Z,3.40
2023-02-06T06:50:23.942Z,3.60
2023-02-06T06:53:09.858Z,3.50
2023-02-06T06:55:55.841Z,3.60
2023-02-06T06:58:42.622Z,3.70
2023-02-06T07:01:28.540Z,3.60
2023-02-06T07:04:15.147Z,3.50
2023-02-06T07:07:01.106Z,3.30
2023-02-06T07:09:47.123Z,3.60
2023-02-06T07:12:33.610Z,3.80
2023-02-06T07:15:20.511Z,3.90
2023-02-06T07:18:06.255Z,3.60
2023-02-06T07:20:52.288Z,3.50
2023-02-06T07:23:38.897Z,4.60
2023-02-06T07:26:24.877Z,3.30
2023-02-06T07:29:10.900Z,3.30
2023-02-06T07:31:57.172Z,3.40
2023-02-06T07:34:42.774Z,3.40
2023-02-06T07:37:28.647Z,3.40
2023-02-06T07:40:14.843Z,4.50
2023-02-06T07:43:01.027Z,3.80
2023-02-06T07:45:53.112Z,3.90
2023-02-06T07:48:39.285Z,3.90
2023-02-06T07:51:25.481Z,3.40
2023-02-06T07:54:12.754Z,3.70
2023-02-06T07:56:58.594Z,4.20
2023-02-06T07:59:44.884Z,4.60
2023-02-06T08:02:31.009Z,5.00
2023-02-06T08:05:18.446Z,5.30
2023-02-06T08:08:04.971Z,5.60
2023-02-06T08:10:51.091Z,5.80
2023-02-06T08:13:37.009Z,6.10
2023-02-06T08:16:24.117Z,6.80
2023-02-06T08:19:11.310Z,8.40
2023-02-06T08:21:58.605Z,9.70
2023-02-06T08:24:44.263Z,10.90
2023-02-06T08:27:32.573Z,11.80
2023-02-06T08:30:18.603Z,12.10
2023-02-06T08:33:04.143Z,10.70
2023-02-06T08:35:50.176Z,10.50
2023-02-06T08:38:36.547Z,8.80
2023-02-06T08:41:28.157Z,9.70
2023-02-06T08:44:16.561Z,9.90
2023-02-06T08:47:10.125Z,8.90
2023-02-06T08:49:57.772Z,8.30
2023-02-06T08:52:43.374Z,9.00
2023-02-06T08:55:29.299Z,9.60
2023-02-06T08:58:15.113Z,9.70
2023-02-06T09:01:09.114Z,10.70
2023-02-06T09:03:56.545Z,11.90
2023-02-06T09:06:44.605Z,13.00
2023-02-06T09:09:30.211Z,13.20
2023-02-06T09:12:16.053Z,11.80
2023-02-06T09:15:01.761Z,11.50
2023-02-06T09:17:47.908Z,10.40
2023-02-06T09:20:33.622Z,11.70
2023-02-06T09:23:19.356Z,12.30
2023-02-06T09:26:06.067Z,12.40
2023-02-06T09:28:58.460Z,12.10
2023-02-06T09:31:44.504Z,12.40
2023-02-06T09:34:30.481Z,12.00
2023-02-06T09:37:16.586Z,12.00
2023-02-06T09:40:02.557Z,11.20
2023-02-06T09:42:49.216Z,9.90
2023-02-06T09:45:35.459Z,11.90
2023-02-06T09:48:25.628Z,12.50
2023-02-06T09:51:34.964Z,11.40
2023-02-06T09:54:35.859Z,9.90
2023-02-06T09:57:49.638Z,11.30
2023-02-06T10:00:47.381Z,10.10
2023-02-06T10:03:48.837Z,12.30
2023-02-06T10:06:48.809Z,13.00
2023-02-06T10:09:44.117Z,13.90
2023-02-06T10:12:43.044Z,12.10
2023-02-06T10:15:34.862Z,11.70
2023-02-06T10:18:24.061Z,13.50
2023-02-06T10:21:35.912Z,15.80
2023-02-06T10:24:39.714Z,15.40
2023-02-06T10:27:25.148Z,12.10
2023-02-06T10:30:20.143Z,9.20
2023-02-06T10:33:25.268Z,9.30
2023-02-06T10:36:40.873Z,8.70
2023-02-06T10:39:57.021Z,9.40
2023-02-06T10:42:55.198Z,9.20
2023-02-06T10:45:55.659Z,8.90
2023-02-06T10:48:47.855Z,8.30
2023-02-06T10:51:42.825Z,7.90
2023-02-06T10:54:41.813Z,8.10
2023-02-06T10:57:29.203Z,7.90
2023-02-06T11:00:25.229Z,8.00
2023-02-06T11:03:19.239Z,8.30
2023-02-06T11:06:05.652Z,8.50
2023-02-06T11:08:51.548Z,8.20
2023-02-06T11:11:41.812Z,7.80
2023-02-06T11:14:39.052Z,8.40
2023-02-06T11:17:28.224Z,8.20
2023-02-06T11:20:28.754Z,7.90
2023-02-06T11:23:20.402Z,8.10
2023-02-06T11:26:14.654Z,7.80
2023-02-06T11:29:09.747Z,7.50
2023-02-06T11:32:02.191Z,7.40
2023-02-06T11:35:01.346Z,7.20
2023-02-06T11:37:54.855Z,7.70
2023-02-06T11:40:40.726Z,8.00
2023-02-06T11:43:32.918Z,8.00
2023-02-06T11:46:26.802Z,8.50
2023-02-06T11:49:32.502Z,8.30
2023-02-06T11:52:33.317Z,8.00
2023-02-06T11:55:23.525Z,7.80
2023-02-06T11:58:11.908Z,8.00
2023-02-06T12:01:06.535Z,7.80
2023-02-06T12:03:55.385Z,8.00
2023-02-06T12:06:41.835Z,8.10
2023-02-06T12:09:28.457Z,7.90
2023-02-06T12:12:23.161Z,8.00
2023-02-06T12:15:43.665Z,7.90
2023-02-06T12:18:37.142Z,8.00
2023-02-06T12:21:46.165Z,7.70
2023-02-06T12:24:47.841Z,7.50
2023-02-06T12:27:42.002Z,8.10
2023-02-06T12:30:37.716Z,7.90
2023-02-06T12:33:42.348Z,7.80
2023-02-06T12:36:37.655Z,8.10
2023-02-06T12:39:24.000Z,7.90
2023-02-06T12:42:47.644Z,7.80
2023-02-06T12:45:56.790Z,8.20
2023-02-06T12:49:04.619Z,8.70
2023-02-06T12:52:20.523Z,8.10
2023-02-06T12:55:36.289Z,7.90
2023-02-06T12:58:42.716Z,8.00
2023-02-06T13:01:52.088Z,8.30
2023-02-06T13:04:38.049Z,8.70
2023-02-06T13:07:25.841Z,8.20
2023-02-06T13:10:20.905Z,7.90
2023-02-06T13:13:06.736Z,7.80
2023-02-06T13:15:55.549Z,7.80
2023-02-06T13:18:41.570Z,7.70
2023-02-06T13:21:33.157Z,7.90
2023-02-06T13:24:20.124Z,7.70
2023-02-06T13:27:08.920Z,8.00
2023-02-06T13:29:54.471Z,8.10
2023-02-06T13:32:43.731Z,8.10
2023-02-06T13:35:30.844Z,8.10
2023-02-06T13:38:30.840Z,7.80
2023-02-06T13:41:17.582Z,7.80
2023-02-06T13:44:25.374Z,7.70
2023-02-06T13:47:17.318Z,7.80
2023-02-06T13:50:22.240Z,8.10
2023-02-06T13:53:41.266Z,7.90
2023-02-06T13:56:52.222Z,7.80
2023-02-06T13:59:46.324Z,8.00
2023-02-06T14:02:39.677Z,8.00
2023-02-06T14:05:51.685Z,7.70
2023-02-06T14:08:55.799Z,7.90
2023-02-06T14:12:36.703Z,8.10
2023-02-06T14:15:31.482Z,7.70
2023-02-06T14:18:51.188Z,7.80
2023-02-06T14:21:46.021Z,7.70
2023-02-06T14:25:04.490Z,7.70
2023-02-06T14:28:19.526Z,7.40
2023-02-06T14:31:20.396Z,7.40
2023-02-06T14:34:17.982Z,7.70
2023-02-06T14:37:22.321Z,7.50
2023-02-06T14:40:17.322Z,7.50
2023-02-06T14:43:08.076Z,7.60
2023-02-06T14:46:07.018Z,7.90
2023-02-06T14:49:00.562Z,7.70
2023-02-06T14:51:51.535Z,7.70
2023-02-06T14:54:39.069Z,7.80
2023-02-06T14:57:31.111Z,7.70
2023-02-06T15:00:21.492Z,7.40
2023-02-06T15:03:16.975Z,7.60
2023-02-06T15:06:10.409Z,7.40
2023-02-06T15:08:56.605Z,7.40
2023-02-06T15:11:50.303Z,7.60
2023-02-06T15:14:36.356Z,7.40
2023-02-06T15:17:26.560Z,7.40
2023-02-06T15:20:35.223Z,7.40
2023-02-06T15:23:55.570Z,7.30
2023-02-06T15:27:09.962Z,7.30
2023-02-06T15:29:57.114Z,7.30
2023-02-06T15:32:52.439Z,7.40
2023-02-06T15:35:48.460Z,7.40
2023-02-06T15:38:35.131Z,7.30
2023-02-06T15:41:21.449Z,7.30
2023-02-06T15:44:34.042Z,7.30
2023-02-06T15:47:21.377Z,7.10
2023-02-06T15:50:10.966Z,6.90
2023-02-06T15:52:57.049Z,6.80
2023-02-06T15:55:56.646Z,6.80
2023-02-06T15:58:43.449Z,6.70
2023-02-06T16:01:32.746Z,6.70
2023-02-06T16:04:25.950Z,6.60
2023-02-06T16:07:18.104Z,6.60
2023-02-06T16:10:24.566Z,6.50
2023-02-06T16:13:16.257Z,6.50
2023-02-06T16:16:22.907Z,6.30
2023-02-06T16:19:37.976Z,6.40
2023-02-06T16:22:31.787Z,6.30
2023-02-06T16:25:21.117Z,6.20
2023-02-06T16:28:23.249Z,6.20
2023-02-06T16:31:17.357Z,6.20
2023-02-06T16:34:20.711Z,6.20
2023-02-06T16:37:14.846Z,6.20
2023-02-06T16:40:02.299Z,6.30
2023-02-06T16:42:48.526Z,6.20
2023-02-06T16:45:34.742Z,6.10
2023-02-06T16:48:21.607Z,6.00
2023-02-06T16:51:13.002Z,6.00
2023-02-06T16:54:02.147Z,6.00
2023-02-06T16:56:49.190Z,6.00
2023-02-06T16:59:36.381Z,5.90
2023-02-06T17:02:23.913Z,4.20
2023-02-06T17:05:09.881Z,5.90
2023-02-06T17:07:56.506Z,5.30
2023-02-06T17:10:43.886Z,3.70
2023-02-06T17:13:30.481Z,5.60
2023-02-06T17:16:22.844Z,5.50
2023-02-06T17:19:11.407Z,5.60
2023-02-06T17:21:57.980Z,5.60
2023-02-06T17:24:44.833Z,5.50
2023-02-06T17:27:30.920Z,5.30
2023-02-06T17:30:22.131Z,5.20
2023-02-06T17:33:08.680Z,5.10
2023-02-06T17:35:57.532Z,5.20
2023-02-06T17:38:43.864Z,4.90
2023-02-06T17:41:31.816Z,4.80
2023-02-06T17:44:19.264Z,4.90
2023-02-06T17:47:05.964Z,4.90
2023-02-06T17:49:55.539Z,4.90
2023-02-06T17:52:41.860Z,4.80
2023-02-06T17:55:29.000Z,4.80
2023-02-06T17:58:15.350Z,4.80
2023-02-06T18:01:05.234Z,4.70
2023-02-06T18:03:51.945Z,4.70
2023-02-06T18:06:41.271Z,5.10
2023-02-06T18:09:27.611Z,4.40
2023-02-06T18:12:14.514Z,4.40
2023-02-06T18:15:01.032Z,4.50
2023-02-06T18:17:47.204Z,4.30
2023-02-06T18:20:33.426Z,4.30
2023-02-06T18:23:21.528Z,4.30
2023-02-06T18:26:09.815Z,4.50
2023-02-06T18:28:56.149Z,4.60
2023-02-06T18:31:43.072Z,4.80
2023-02-06T18:34:28.986Z,5.00
2023-02-06T18:37:15.681Z,5.10
2023-02-06T18:40:02.132Z,4.90
2023-02-06T18:42:51.259Z,4.60
2023-02-06T18:45:46.654Z,4.40
2023-02-06T18:48:34.146Z,4.10
2023-02-06T18:51:20.105Z,3.80
2023-02-06T18:54:08.412Z,3.70
2023-02-06T18:56:55.170Z,3.60
2023-02-06T18:59:42.245Z,3.50
2023-02-06T19:02:29.438Z,2.00
2023-02-06T19:05:20.489Z,3.10
2023-02-06T19:08:09.890Z,3.20
2023-02-06T19:10:57.598Z,3.20
2023-02-06T19:13:45.116Z,4.80
2023-02-06T19:16:32.657Z,3.10
2023-02-06T19:19:19.619Z,3.60
2023-02-06T19:22:06.167Z,3.80
2023-02-06T19:24:54.509Z,3.90
2023-02-06T19:27:40.832Z,3.80
2023-02-06T19:30:27.565Z,3.60
2023-02-06T19:33:15.899Z,3.50
2023-02-06T19:36:16.943Z,5.00
2023-02-06T19:39:09.611Z,3.60
2023-02-06T19:41:55.983Z,3.50
2023-02-06T19:44:42.861Z,3.50
2023-02-06T19:47:29.516Z,3.60
2023-02-06T19:50:15.926Z,3.70
2023-02-06T19:53:01.738Z,4.60
2023-02-06T19:55:48.718Z,4.10
2023-02-06T19:58:34.360Z,3.40
2023-02-06T20:01:20.655Z,3.40
2023-02-06T20:04:06.568Z,3.20
2023-02-06T20:06:53.061Z,3.30
2023-02-06T20:09:42.115Z,3.40
2023-02-06T20:12:30.680Z,3.30
2023-02-06T20:15:17.410Z,3.30
2023-02-06T20:18:03.377Z,3.10
2023-02-06T20:20:49.424Z,3.00
2023-02-06T20:23:38.556Z,2.90
2023-02-06T20:26:26.659Z,2.90
2023-02-06T20:29:24.310Z,3.00
2023-02-06T20:32:11.818Z,0.90
2023-02-06T20:34:58.513Z,3.00
2023-02-06T20:37:44.650Z,2.90
2023-02-06T20:40:30.886Z,3.10
2023-02-06T20:43:16.931Z,3.10
2023-02-06T20:46:06.723Z,3.20
2023-02-06T20:49:20.467Z,3.20
2023-02-06T20:52:06.646Z,2.60
2023-02-06T20:54:55.198Z,3.20
2023-02-06T20:57:47.884Z,3.20
2023-02-06T21:00:43.271Z,4.30
2023-02-06T21:03:33.416Z,2.80
2023-02-06T21:06:21.429Z,2.60
2023-02-06T21:09:12.617Z,2.90
2023-02-06T21:11:58.417Z,2.80
2023-02-06T21:14:44.987Z,3.40
2023-02-06T21:17:33.563Z,2.70
2023-02-06T21:20:21.307Z,2.20
2023-02-06T21:26:17.688Z,2.60
2023-02-06T21:29:12.677Z,2.50
2023-02-06T21:32:12.559Z,3.80
2023-02-06T21:35:02.469Z,2.70
2023-02-06T21:38:02.996Z,2.80
2023-02-06T21:40:49.992Z,2.70
2023-02-06T21:43:36.641Z,2.80
2023-02-06T21:46:23.233Z,2.90
2023-02-06T21:49:12.298Z,2.90
2023-02-06T21:51:59.718Z,2.70
2023-02-06T21:54:45.930Z,2.90
2023-02-06T21:57:37.124Z,2.90
2023-02-06T22:00:24.037Z,4.00
2023-02-06T22:03:17.498Z,3.00
2023-02-06T22:06:09.573Z,2.60
2023-02-06T22:09:02.806Z,3.80
2023-02-06T22:11:52.063Z,1.30
2023-02-06T22:14:38.647Z,3.90
2023-02-06T22:17:27.937Z,3.50
2023-02-06T22:20:16.402Z,2.90
2023-02-06T22:23:04.230Z,3.00
2023-02-06T22:25:50.637Z,3.10
2023-02-06T22:34:51.580Z,2.80
2023-02-06T22:37:38.535Z,2.60
2023-02-06T22:40:25.965Z,2.50
2023-02-06T22:43:12.697Z,2.60
2023-02-06T22:45:59.124Z,2.80
2023-02-06T22:48:45.103Z,2.80
2023-02-06T22:51:31.062Z,2.90
2023-02-06T22:54:17.424Z,2.50
2023-02-06T22:57:03.606Z,2.20
2023-02-06T22:59:51.011Z,2.10
2023-02-06T23:02:39.265Z,2.00
2023-02-06T23:05:27.501Z,1.90
2023-02-06T23:08:13.584Z,1.80
2023-02-06T23:10:59.923Z,1.80
2023-02-06T23:13:46.111Z,2.00
2023-02-06T23:16:34.159Z,3.40
2023-02-06T23:19:20.767Z,1.90
2023-02-06T23:22:08.636Z,1.80
2023-02-06T23:24:54.983Z,1.80
2023-02-06T23:27:40.893Z,1.80
2023-02-06T23:30:29.235Z,1.70
2023-02-06T23:33:15.694Z,1.80
2023-02-06T23:36:14.072Z,2.00
2023-02-06T23:39:05.803Z,1.80
2023-02-06T23:41:52.093Z,1.70
2023-02-06T23:44:38.218Z,2.10
2023-02-06T23:47:24.097Z,1.50
2023-02-06T23:50:10.519Z,1.40
2023-02-06T23:52:56.346Z,1.40
2023-02-06T23:55:42.530Z,1.40
2023-02-06T23:58:28.488Z,1.40
